< < Back
Terminal Aerodrome Forecast


Current Version              Previous Versions:   1  2  3  4  5  6  7  8  9  

Terminal Aerodrome Forecast

755
FTUS42 KGSP 281259 CCA
TAFAVL
TAF COR
KAVL 281259Z 2812/2912 VRB03KT P6SM BKN035
      TEMPO 2812/2813 00000KT 3SM BR SCT003
     FM281400 01005KT P6SM SCT030
     FM281700 09005KT P6SM SCT150
     FM290000 02004KT P6SM FEW130=

Latest METAR

483
SAUS70 KWBC 281600 RRA
MTRAVL
METAR KAVL 281554Z 00000KT 10SM FEW034 FEW055 27/21 A3030 RMK AO2 SLP230
T02720206


USA.gov is the U.S. government's official web portal to all federal, state and local government web resources and services.